sensor_id;sensor_type;location;lat;lon;timestamp;temperature;humidity
7814;DHT22;3952;48.364;16.022;2023-02-03T00:01:09;2.60;99.90
7814;DHT22;3952;48.364;16.022;2023-02-03T00:03:37;2.60;99.90
7814;DHT22;3952;48.364;16.022;2023-02-03T00:06:04;2.70;99.90
7814;DHT22;3952;48.364;16.022;2023-02-03T00:08:31;2.70;99.90
7814;DHT22;3952;48.364;16.022;2023-02-03T00:10:59;2.70;99.90
7814;DHT22;3952;48.364;16.022;2023-02-03T00:13:26;2.80;99.90
7814;DHT22;3952;48.364;16.022;2023-02-03T00:15:55;2.70;99.90
7814;DHT22;3952;48.364;16.022;2023-02-03T00:18:22;2.80;99.90
7814;DHT22;3952;48.364;16.022;2023-02-03T00:20:49;2.70;99.90
7814;DHT22;3952;48.364;16.022;2023-02-03T00:23:16;2.80;99.90
7814;DHT22;3952;48.364;16.022;2023-02-03T00:25:44;2.80;99.90
7814;DHT22;3952;48.364;16.022;2023-02-03T00:28:11;2.80;99.90
7814;DHT22;3952;48.364;16.022;2023-02-03T00:30:38;2.70;99.90
7814;DHT22;3952;48.364;16.022;2023-02-03T00:33:07;2.70;99.90
7814;DHT22;3952;48.364;16.022;2023-02-03T00:35:37;2.70;99.90
7814;DHT22;3952;48.364;16.022;2023-02-03T00:38:05;2.70;99.90
7814;DHT22;3952;48.364;16.022;2023-02-03T00:40:32;2.80;99.90
7814;DHT22;3952;48.364;16.022;2023-02-03T00:42:59;2.80;99.90
7814;DHT22;3952;48.364;16.022;2023-02-03T00:45:26;2.70;99.90
7814;DHT22;3952;48.364;16.022;2023-02-03T00:47:53;2.70;99.90
7814;DHT22;3952;48.364;16.022;2023-02-03T00:50:22;2.80;99.90
7814;DHT22;3952;48.364;16.022;2023-02-03T00:52:49;2.80;99.90
7814;DHT22;3952;48.364;16.022;2023-02-03T00:55:16;2.80;99.90
7814;DHT22;3952;48.364;16.022;2023-02-03T00:57:43;2.80;99.90
7814;DHT22;3952;48.364;16.022;2023-02-03T01:00:12;2.80;99.90
7814;DHT22;3952;48.364;16.022;2023-02-03T01:02:39;2.80;99.90
7814;DHT22;3952;48.364;16.022;2023-02-03T01:05:07;2.80;99.90
7814;DHT22;3952;48.364;16.022;2023-02-03T01:07:36;2.80;99.90
7814;DHT22;3952;48.364;16.022;2023-02-03T01:10:04;2.80;99.90
7814;DHT22;3952;48.364;16.022;2023-02-03T01:12:32;2.80;99.90
7814;DHT22;3952;48.364;16.022;2023-02-03T01:15:00;2.90;99.90
7814;DHT22;3952;48.364;16.022;2023-02-03T01:17:27;2.90;99.90
7814;DHT22;3952;48.364;16.022;2023-02-03T01:19:54;2.90;99.90
7814;DHT22;3952;48.364;16.022;2023-02-03T01:22:21;2.90;99.90
7814;DHT22;3952;48.364;16.022;2023-02-03T01:24:50;2.90;99.90
7814;DHT22;3952;48.364;16.022;2023-02-03T01:27:17;2.90;99.90
7814;DHT22;3952;48.364;16.022;2023-02-03T01:29:45;2.90;99.90
7814;DHT22;3952;48.364;16.022;2023-02-03T01:32:12;2.90;99.90
7814;DHT22;3952;48.364;16.022;2023-02-03T01:34:39;2.80;99.90
7814;DHT22;3952;48.364;16.022;2023-02-03T01:37:06;2.90;99.90
7814;DHT22;3952;48.364;16.022;2023-02-03T01:39:33;2.90;99.90
7814;DHT22;3952;48.364;16.022;2023-02-03T01:42:02;2.80;99.90
7814;DHT22;3952;48.364;16.022;2023-02-03T01:44:45;2.80;99.90
7814;DHT22;3952;48.364;16.022;2023-02-03T01:47:22;2.90;99.90
7814;DHT22;3952;48.364;16.022;2023-02-03T01:49:56;2.90;99.90
7814;DHT22;3952;48.364;16.022;2023-02-03T01:52:26;2.90;99.90
7814;DHT22;3952;48.364;16.022;2023-02-03T01:54:55;2.90;99.90
7814;DHT22;3952;48.364;16.022;2023-02-03T01:57:30;2.90;99.90
7814;DHT22;3952;48.364;16.022;2023-02-03T01:59:59;2.90;99.90
7814;DHT22;3952;48.364;16.022;2023-02-03T02:02:28;2.90;99.90
7814;DHT22;3952;48.364;16.022;2023-02-03T02:05:00;2.90;99.90
7814;DHT22;3952;48.364;16.022;2023-02-03T02:07:29;2.90;99.90
7814;DHT22;3952;48.364;16.022;2023-02-03T02:09:57;2.90;99.90
7814;DHT22;3952;48.364;16.022;2023-02-03T02:12:27;2.90;99.90
7814;DHT22;3952;48.364;16.022;2023-02-03T02:14:54;2.90;99.90
7814;DHT22;3952;48.364;16.022;2023-02-03T02:17:47;2.90;99.90
7814;DHT22;3952;48.364;16.022;2023-02-03T02:21:09;2.90;99.90
7814;DHT22;3952;48.364;16.022;2023-02-03T02:24:11;2.90;99.90
7814;DHT22;3952;48.364;16.022;2023-02-03T02:26:53;2.90;99.90
7814;DHT22;3952;48.364;16.022;2023-02-03T02:29:43;2.90;99.90
7814;DHT22;3952;48.364;16.022;2023-02-03T02:32:25;2.80;99.90
7814;DHT22;3952;48.364;16.022;2023-02-03T02:35:01;2.80;99.90
7814;DHT22;3952;48.364;16.022;2023-02-03T02:37:37;2.80;99.90
7814;DHT22;3952;48.364;16.022;2023-02-03T02:40:14;4.20;99.90
7814;DHT22;3952;48.364;16.022;2023-02-03T02:42:56;2.70;99.90
7814;DHT22;3952;48.364;16.022;2023-02-03T02:45:29;2.70;99.90
7814;DHT22;3952;48.364;16.022;2023-02-03T02:48:01;2.60;99.90
7814;DHT22;3952;48.364;16.022;2023-02-03T02:50:36;2.60;99.90
7814;DHT22;3952;48.364;16.022;2023-02-03T02:53:05;2.60;99.90
7814;DHT22;3952;48.364;16.022;2023-02-03T02:55:37;2.60;99.90
7814;DHT22;3952;48.364;16.022;2023-02-03T02:58:07;2.50;99.90
7814;DHT22;3952;48.364;16.022;2023-02-03T03:00:36;2.50;99.90
7814;DHT22;3952;48.364;16.022;2023-02-03T03:03:14;2.50;99.90
7814;DHT22;3952;48.364;16.022;2023-02-03T03:05:45;2.50;99.90
7814;DHT22;3952;48.364;16.022;2023-02-03T03:08:15;2.60;99.90
7814;DHT22;3952;48.364;16.022;2023-02-03T03:10:44;2.50;99.90
7814;DHT22;3952;48.364;16.022;2023-02-03T03:13:17;2.50;99.90
7814;DHT22;3952;48.364;16.022;2023-02-03T03:15:47;2.50;99.90
7814;DHT22;3952;48.364;16.022;2023-02-03T03:18:20;2.60;99.90
7814;DHT22;3952;48.364;16.022;2023-02-03T03:20:50;2.50;99.90
7814;DHT22;3952;48.364;16.022;2023-02-03T03:23:21;2.50;99.90
7814;DHT22;3952;48.364;16.022;2023-02-03T03:25:55;2.60;99.90
7814;DHT22;3952;48.364;16.022;2023-02-03T03:28:28;2.60;99.90
7814;DHT22;3952;48.364;16.022;2023-02-03T03:30:56;2.60;99.90
7814;DHT22;3952;48.364;16.022;2023-02-03T03:33:25;2.60;99.90
7814;DHT22;3952;48.364;16.022;2023-02-03T03:35:56;2.60;99.90
7814;DHT22;3952;48.364;16.022;2023-02-03T03:38:31;2.60;99.90
7814;DHT22;3952;48.364;16.022;2023-02-03T03:41:02;2.60;99.90
7814;DHT22;3952;48.364;16.022;2023-02-03T03:43:34;2.60;99.90
7814;DHT22;3952;48.364;16.022;2023-02-03T03:46:08;2.60;99.90
7814;DHT22;3952;48.364;16.022;2023-02-03T03:48:43;2.60;99.90
7814;DHT22;3952;48.364;16.022;2023-02-03T03:51:18;2.60;99.90
7814;DHT22;3952;48.364;16.022;2023-02-03T03:53:47;2.60;99.90
7814;DHT22;3952;48.364;16.022;2023-02-03T03:56:27;2.60;99.90
7814;DHT22;3952;48.364;16.022;2023-02-03T03:58:57;2.60;99.90
7814;DHT22;3952;48.364;16.022;2023-02-03T04:01:26;2.60;99.90
7814;DHT22;3952;48.364;16.022;2023-02-03T04:04:01;2.60;99.90
7814;DHT22;3952;48.364;16.022;2023-02-03T04:06:28;2.60;99.90
7814;DHT22;3952;48.364;16.022;2023-02-03T04:08:56;2.60;99.90
7814;DHT22;3952;48.364;16.022;2023-02-03T04:11:23;2.60;99.90
7814;DHT22;3952;48.364;16.022;2023-02-03T04:14:08;2.60;99.90
7814;DHT22;3952;48.364;16.022;2023-02-03T04:16:35;2.60;99.90
7814;DHT22;3952;48.364;16.022;2023-02-03T04:19:04;2.60;99.90
7814;DHT22;3952;48.364;16.022;2023-02-03T04:21:31;2.60;99.90
7814;DHT22;3952;48.364;16.022;2023-02-03T04:23:58;2.60;99.90
7814;DHT22;3952;48.364;16.022;2023-02-03T04:26:25;2.60;99.90
7814;DHT22;3952;48.364;16.022;2023-02-03T04:28:53;2.60;99.90
7814;DHT22;3952;48.364;16.022;2023-02-03T04:31:20;2.60;99.90
7814;DHT22;3952;48.364;16.022;2023-02-03T04:33:47;2.60;99.90
7814;DHT22;3952;48.364;16.022;2023-02-03T04:36:16;2.60;99.90
7814;DHT22;3952;48.364;16.022;2023-02-03T04:38:43;2.60;99.90
7814;DHT22;3952;48.364;16.022;2023-02-03T04:41:10;2.60;99.90
7814;DHT22;3952;48.364;16.022;2023-02-03T04:43:38;2.60;99.90
7814;DHT22;3952;48.364;16.022;2023-02-03T04:46:05;2.60;99.90
7814;DHT22;3952;48.364;16.022;2023-02-03T04:48:32;2.60;99.90
7814;DHT22;3952;48.364;16.022;2023-02-03T04:51:00;2.60;99.90
7814;DHT22;3952;48.364;16.022;2023-02-03T04:53:30;2.60;99.90
7814;DHT22;3952;48.364;16.022;2023-02-03T04:56:04;2.60;99.90
7814;DHT22;3952;48.364;16.022;2023-02-03T04:58:32;2.60;99.90
7814;DHT22;3952;48.364;16.022;2023-02-03T05:01:05;2.60;99.90
7814;DHT22;3952;48.364;16.022;2023-02-03T05:03:33;2.70;99.90
7814;DHT22;3952;48.364;16.022;2023-02-03T05:06:01;2.70;99.90
7814;DHT22;3952;48.364;16.022;2023-02-03T05:08:30;2.70;99.90
7814;DHT22;3952;48.364;16.022;2023-02-03T05:10:57;2.70;99.90
7814;DHT22;3952;48.364;16.022;2023-02-03T05:13:25;2.70;99.90
7814;DHT22;3952;48.364;16.022;2023-02-03T05:15:52;2.70;99.90
7814;DHT22;3952;48.364;16.022;2023-02-03T05:18:19;2.70;99.90
7814;DHT22;3952;48.364;16.022;2023-02-03T05:21:00;2.70;99.90
7814;DHT22;3952;48.364;16.022;2023-02-03T05:23:27;2.80;99.90
7814;DHT22;3952;48.364;16.022;2023-02-03T05:25:56;2.80;99.90
7814;DHT22;3952;48.364;16.022;2023-02-03T05:28:23;2.80;99.90
7814;DHT22;3952;48.364;16.022;2023-02-03T05:30:56;2.80;99.90
7814;DHT22;3952;48.364;16.022;2023-02-03T05:33:23;2.80;99.90
7814;DHT22;3952;48.364;16.022;2023-02-03T05:35:51;2.80;99.90
7814;DHT22;3952;48.364;16.022;2023-02-03T05:38:18;2.90;99.90
7814;DHT22;3952;48.364;16.022;2023-02-03T05:40:47;2.90;99.90
7814;DHT22;3952;48.364;16.022;2023-02-03T05:43:33;2.90;99.90
7814;DHT22;3952;48.364;16.022;2023-02-03T05:46:01;2.90;99.90
7814;DHT22;3952;48.364;16.022;2023-02-03T05:48:29;2.90;99.90
7814;DHT22;3952;48.364;16.022;2023-02-03T05:50:57;3.00;99.90
7814;DHT22;3952;48.364;16.022;2023-02-03T05:53:24;3.00;99.90
7814;DHT22;3952;48.364;16.022;2023-02-03T05:55:52;3.00;99.90
7814;DHT22;3952;48.364;16.022;2023-02-03T05:58:19;3.00;99.90
7814;DHT22;3952;48.364;16.022;2023-02-03T06:00:48;3.00;99.90
7814;DHT22;3952;48.364;16.022;2023-02-03T06:03:15;3.10;99.90
7814;DHT22;3952;48.364;16.022;2023-02-03T06:05:42;3.10;99.90
7814;DHT22;3952;48.364;16.022;2023-02-03T06:08:10;3.10;99.90
7814;DHT22;3952;48.364;16.022;2023-02-03T06:10:37;3.10;99.90
7814;DHT22;3952;48.364;16.022;2023-02-03T06:13:09;3.10;99.90
7814;DHT22;3952;48.364;16.022;2023-02-03T06:15:36;3.10;99.90
7814;DHT22;3952;48.364;16.022;2023-02-03T06:18:05;3.10;99.90
7814;DHT22;3952;48.364;16.022;2023-02-03T06:20:36;3.20;99.90
7814;DHT22;3952;48.364;16.022;2023-02-03T06:23:03;3.20;99.90
7814;DHT22;3952;48.364;16.022;2023-02-03T06:25:30;3.20;99.90
7814;DHT22;3952;48.364;16.022;2023-02-03T06:27:58;3.20;99.90
7814;DHT22;3952;48.364;16.022;2023-02-03T06:30:25;3.20;99.90
7814;DHT22;3952;48.364;16.022;2023-02-03T06:32:53;3.20;99.90
7814;DHT22;3952;48.364;16.022;2023-02-03T06:35:21;3.30;99.90
7814;DHT22;3952;48.364;16.022;2023-02-03T06:37:49;3.30;99.90
7814;DHT22;3952;48.364;16.022;2023-02-03T06:40:16;3.30;99.90
7814;DHT22;3952;48.364;16.022;2023-02-03T06:42:45;3.30;99.90
7814;DHT22;3952;48.364;16.022;2023-02-03T06:45:13;3.30;99.90
7814;DHT22;3952;48.364;16.022;2023-02-03T06:47:41;3.40;99.90
7814;DHT22;3952;48.364;16.022;2023-02-03T06:50:11;3.40;99.90
7814;DHT22;3952;48.364;16.022;2023-02-03T06:52:40;3.40;99.90
7814;DHT22;3952;48.364;16.022;2023-02-03T06:55:08;3.40;99.90
7814;DHT22;3952;48.364;16.022;2023-02-03T06:57:35;3.50;99.90
7814;DHT22;3952;48.364;16.022;2023-02-03T07:00:10;3.50;99.90
7814;DHT22;3952;48.364;16.022;2023-02-03T07:02:38;3.50;99.90
7814;DHT22;3952;48.364;16.022;2023-02-03T07:05:06;3.50;99.90
7814;DHT22;3952;48.364;16.022;2023-02-03T07:07:33;3.60;99.90
7814;DHT22;3952;48.364;16.022;2023-02-03T07:10:05;3.60;99.90
7814;DHT22;3952;48.364;16.022;2023-02-03T07:12:32;3.60;99.90
7814;DHT22;3952;48.364;16.022;2023-02-03T07:15:01;3.70;99.90
7814;DHT22;3952;48.364;16.022;2023-02-03T07:17:28;3.70;99.90
7814;DHT22;3952;48.364;16.022;2023-02-03T07:19:56;3.70;99.90
7814;DHT22;3952;48.364;16.022;2023-02-03T07:22:23;3.70;99.90
7814;DHT22;3952;48.364;16.022;2023-02-03T07:24:51;3.80;99.90
7814;DHT22;3952;48.364;16.022;2023-02-03T07:27:19;3.80;99.90
7814;DHT22;3952;48.364;16.022;2023-02-03T07:29:46;3.80;99.90
7814;DHT22;3952;48.364;16.022;2023-02-03T07:32:14;3.90;99.90
7814;DHT22;3952;48.364;16.022;2023-02-03T07:34:41;3.90;99.90
7814;DHT22;3952;48.364;16.022;2023-02-03T07:37:08;4.00;99.90
7814;DHT22;3952;48.364;16.022;2023-02-03T07:39:35;4.00;99.90
7814;DHT22;3952;48.364;16.022;2023-02-03T07:42:03;4.00;99.90
7814;DHT22;3952;48.364;16.022;2023-02-03T07:44:32;4.00;99.90
7814;DHT22;3952;48.364;16.022;2023-02-03T07:46:59;4.10;99.90
7814;DHT22;3952;48.364;16.022;2023-02-03T07:49:26;4.10;99.90
7814;DHT22;3952;48.364;16.022;2023-02-03T07:51:54;4.10;99.90
7814;DHT22;3952;48.364;16.022;2023-02-03T07:54:21;4.20;99.90
7814;DHT22;3952;48.364;16.022;2023-02-03T07:56:48;4.20;99.90
7814;DHT22;3952;48.364;16.022;2023-02-03T07:59:16;4.20;99.90
7814;DHT22;3952;48.364;16.022;2023-02-03T08:01:44;4.20;99.90
7814;DHT22;3952;48.364;16.022;2023-02-03T08:04:12;4.30;99.90
7814;DHT22;3952;48.364;16.022;2023-02-03T08:06:41;4.30;99.90
7814;DHT22;3952;48.364;16.022;2023-02-03T08:09:08;4.40;99.90
7814;DHT22;3952;48.364;16.022;2023-02-03T08:11:35;4.40;99.90
7814;DHT22;3952;48.364;16.022;2023-02-03T08:14:03;4.50;99.90
7814;DHT22;3952;48.364;16.022;2023-02-03T08:16:30;4.50;99.90
7814;DHT22;3952;48.364;16.022;2023-02-03T08:18:59;4.60;99.90
7814;DHT22;3952;48.364;16.022;2023-02-03T08:21:26;4.60;99.90
7814;DHT22;3952;48.364;16.022;2023-02-03T08:23:53;4.70;99.90
7814;DHT22;3952;48.364;16.022;2023-02-03T08:26:21;4.70;99.90
7814;DHT22;3952;48.364;16.022;2023-02-03T08:28:49;4.80;99.90
7814;DHT22;3952;48.364;16.022;2023-02-03T08:31:16;4.80;99.90
7814;DHT22;3952;48.364;16.022;2023-02-03T08:33:44;4.80;99.90
7814;DHT22;3952;48.364;16.022;2023-02-03T08:36:12;4.90;99.90
7814;DHT22;3952;48.364;16.022;2023-02-03T08:38:40;4.90;99.90
7814;DHT22;3952;48.364;16.022;2023-02-03T08:41:09;4.90;99.90
7814;DHT22;3952;48.364;16.022;2023-02-03T08:43:36;4.90;99.90
7814;DHT22;3952;48.364;16.022;2023-02-03T08:46:04;4.90;99.90
7814;DHT22;3952;48.364;16.022;2023-02-03T08:48:31;4.90;99.90
7814;DHT22;3952;48.364;16.022;2023-02-03T08:50:59;5.00;99.90
7814;DHT22;3952;48.364;16.022;2023-02-03T08:53:28;5.00;99.90
7814;DHT22;3952;48.364;16.022;2023-02-03T08:55:55;5.00;99.90
7814;DHT22;3952;48.364;16.022;2023-02-03T08:58:22;5.10;99.90
7814;DHT22;3952;48.364;16.022;2023-02-03T09:00:49;5.10;99.90
7814;DHT22;3952;48.364;16.022;2023-02-03T09:03:17;5.10;99.90
7814;DHT22;3952;48.364;16.022;2023-02-03T09:05:45;5.20;99.90
7814;DHT22;3952;48.364;16.022;2023-02-03T09:08:13;5.20;99.90
7814;DHT22;3952;48.364;16.022;2023-02-03T09:10:41;5.30;99.90
7814;DHT22;3952;48.364;16.022;2023-02-03T09:13:09;5.30;99.90
7814;DHT22;3952;48.364;16.022;2023-02-03T09:15:36;5.40;99.90
7814;DHT22;3952;48.364;16.022;2023-02-03T09:18:04;5.50;99.90
7814;DHT22;3952;48.364;16.022;2023-02-03T09:20:31;5.50;99.90
7814;DHT22;3952;48.364;16.022;2023-02-03T09:22:58;5.60;99.90
7814;DHT22;3952;48.364;16.022;2023-02-03T09:25:25;5.60;99.90
7814;DHT22;3952;48.364;16.022;2023-02-03T09:27:54;5.70;99.90
7814;DHT22;3952;48.364;16.022;2023-02-03T09:30:21;5.70;99.90
7814;DHT22;3952;48.364;16.022;2023-02-03T09:32:52;5.70;99.90
7814;DHT22;3952;48.364;16.022;2023-02-03T09:35:21;5.80;99.90
7814;DHT22;3952;48.364;16.022;2023-02-03T09:37:48;5.80;99.90
7814;DHT22;3952;48.364;16.022;2023-02-03T09:40:20;5.80;99.90
7814;DHT22;3952;48.364;16.022;2023-02-03T09:43:01;5.90;99.90
7814;DHT22;3952;48.364;16.022;2023-02-03T09:45:33;5.90;99.90
7814;DHT22;3952;48.364;16.022;2023-02-03T09:48:04;5.90;99.90
7814;DHT22;3952;48.364;16.022;2023-02-03T09:50:34;6.00;99.90
7814;DHT22;3952;48.364;16.022;2023-02-03T09:53:06;6.00;99.90
7814;DHT22;3952;48.364;16.022;2023-02-03T09:58:58;6.10;99.90
7814;DHT22;3952;48.364;16.022;2023-02-03T10:01:32;6.10;99.90
7814;DHT22;3952;48.364;16.022;2023-02-03T10:04:04;6.20;99.90
7814;DHT22;3952;48.364;16.022;2023-02-03T10:06:40;6.20;99.90
7814;DHT22;3952;48.364;16.022;2023-02-03T10:09:18;6.20;99.90
7814;DHT22;3952;48.364;16.022;2023-02-03T10:12:03;6.20;99.90
7814;DHT22;3952;48.364;16.022;2023-02-03T10:14:46;6.30;99.90
7814;DHT22;3952;48.364;16.022;2023-02-03T10:17:25;6.30;99.90
7814;DHT22;3952;48.364;16.022;2023-02-03T10:20:00;6.30;99.90
7814;DHT22;3952;48.364;16.022;2023-02-03T10:22:30;6.40;99.90
7814;DHT22;3952;48.364;16.022;2023-02-03T10:25:02;6.40;99.90
7814;DHT22;3952;48.364;16.022;2023-02-03T10:27:32;6.40;99.90
7814;DHT22;3952;48.364;16.022;2023-02-03T10:30:09;6.40;99.90
7814;DHT22;3952;48.364;16.022;2023-02-03T10:32:43;6.50;99.90
7814;DHT22;3952;48.364;16.022;2023-02-03T10:35:12;6.50;99.90
7814;DHT22;3952;48.364;16.022;2023-02-03T10:37:44;6.50;99.90
7814;DHT22;3952;48.364;16.022;2023-02-03T10:40:15;6.50;99.90
7814;DHT22;3952;48.364;16.022;2023-02-03T10:42:50;6.50;99.90
7814;DHT22;3952;48.364;16.022;2023-02-03T10:45:37;6.50;99.90
7814;DHT22;3952;48.364;16.022;2023-02-03T10:48:09;6.50;99.90
7814;DHT22;3952;48.364;16.022;2023-02-03T10:50:43;6.50;99.90
7814;DHT22;3952;48.364;16.022;2023-02-03T10:53:20;6.60;99.90
7814;DHT22;3952;48.364;16.022;2023-02-03T10:55:50;6.60;99.90
7814;DHT22;3952;48.364;16.022;2023-02-03T10:58:24;6.60;99.90
7814;DHT22;3952;48.364;16.022;2023-02-03T11:00:57;6.60;99.90
7814;DHT22;3952;48.364;16.022;2023-02-03T11:03:27;6.60;99.90
7814;DHT22;3952;48.364;16.022;2023-02-03T11:06:10;6.60;99.90
7814;DHT22;3952;48.364;16.022;2023-02-03T11:08:39;6.60;99.90
7814;DHT22;3952;48.364;16.022;2023-02-03T11:11:12;6.70;99.90
7814;DHT22;3952;48.364;16.022;2023-02-03T11:13:39;6.70;99.90
7814;DHT22;3952;48.364;16.022;2023-02-03T11:16:12;6.70;99.90
7814;DHT22;3952;48.364;16.022;2023-02-03T11:18:55;6.70;99.90
7814;DHT22;3952;48.364;16.022;2023-02-03T11:21:26;6.80;99.90
7814;DHT22;3952;48.364;16.022;2023-02-03T11:23:59;6.80;99.90
7814;DHT22;3952;48.364;16.022;2023-02-03T11:26:29;6.80;99.90
7814;DHT22;3952;48.364;16.022;2023-02-03T11:28:58;6.80;99.90
7814;DHT22;3952;48.364;16.022;2023-02-03T11:34:56;6.80;99.90
7814;DHT22;3952;48.364;16.022;2023-02-03T11:37:26;6.80;99.90
7814;DHT22;3952;48.364;16.022;2023-02-03T11:40:21;6.80;99.90
7814;DHT22;3952;48.364;16.022;2023-02-03T11:43:00;6.80;99.90
7814;DHT22;3952;48.364;16.022;2023-02-03T11:45:29;6.80;99.90
7814;DHT22;3952;48.364;16.022;2023-02-03T11:48:01;6.80;99.90
7814;DHT22;3952;48.364;16.022;2023-02-03T11:50:37;6.80;99.90
7814;DHT22;3952;48.364;16.022;2023-02-03T11:53:22;6.80;99.90
7814;DHT22;3952;48.364;16.022;2023-02-03T11:56:08;6.80;99.90
7814;DHT22;3952;48.364;16.022;2023-02-03T11:59:08;6.80;99.90
7814;DHT22;3952;48.364;16.022;2023-02-03T12:01:56;6.80;99.90
7814;DHT22;3952;48.364;16.022;2023-02-03T12:10:41;6.80;99.90
7814;DHT22;3952;48.364;16.022;2023-02-03T12:13:21;6.90;99.90
7814;DHT22;3952;48.364;16.022;2023-02-03T12:16:08;6.90;99.90
7814;DHT22;3952;48.364;16.022;2023-02-03T12:18:47;6.90;99.90
7814;DHT22;3952;48.364;16.022;2023-02-03T12:21:31;6.90;99.90
7814;DHT22;3952;48.364;16.022;2023-02-03T12:24:09;6.90;99.90
7814;DHT22;3952;48.364;16.022;2023-02-03T12:26:44;6.90;99.90
7814;DHT22;3952;48.364;16.022;2023-02-03T12:29:15;6.90;99.90
7814;DHT22;3952;48.364;16.022;2023-02-03T12:31:48;6.90;99.90
7814;DHT22;3952;48.364;16.022;2023-02-03T12:34:23;6.90;99.90
7814;DHT22;3952;48.364;16.022;2023-02-03T12:36:57;6.90;99.90
7814;DHT22;3952;48.364;16.022;2023-02-03T12:39:32;6.90;99.90
7814;DHT22;3952;48.364;16.022;2023-02-03T12:42:04;6.90;99.90
7814;DHT22;3952;48.364;16.022;2023-02-03T12:44:38;6.90;99.90
7814;DHT22;3952;48.364;16.022;2023-02-03T12:47:15;6.90;99.90
7814;DHT22;3952;48.364;16.022;2023-02-03T12:49:47;6.90;99.90
7814;DHT22;3952;48.364;16.022;2023-02-03T12:52:22;6.90;99.90
7814;DHT22;3952;48.364;16.022;2023-02-03T12:55:00;6.90;99.90
7814;DHT22;3952;48.364;16.022;2023-02-03T12:57:33;6.90;99.90
7814;DHT22;3952;48.364;16.022;2023-02-03T13:00:16;7.00;99.90
7814;DHT22;3952;48.364;16.022;2023-02-03T13:02:55;7.00;99.90
7814;DHT22;3952;48.364;16.022;2023-02-03T13:05:31;7.00;99.90
7814;DHT22;3952;48.364;16.022;2023-02-03T13:08:08;7.00;99.90
7814;DHT22;3952;48.364;16.022;2023-02-03T13:10:44;7.80;99.90
7814;DHT22;3952;48.364;16.022;2023-02-03T13:13:16;6.90;99.90
7814;DHT22;3952;48.364;16.022;2023-02-03T13:15:46;6.90;99.90
7814;DHT22;3952;48.364;16.022;2023-02-03T13:18:20;7.00;99.90
7814;DHT22;3952;48.364;16.022;2023-02-03T13:20:51;7.00;99.90
7814;DHT22;3952;48.364;16.022;2023-02-03T13:23:18;7.00;99.90
7814;DHT22;3952;48.364;16.022;2023-02-03T13:25:59;7.00;99.90
7814;DHT22;3952;48.364;16.022;2023-02-03T13:28:38;7.00;99.90
7814;DHT22;3952;48.364;16.022;2023-02-03T13:31:19;7.00;99.90
7814;DHT22;3952;48.364;16.022;2023-02-03T13:34:15;7.10;99.90
7814;DHT22;3952;48.364;16.022;2023-02-03T13:37:00;7.00;99.90
7814;DHT22;3952;48.364;16.022;2023-02-03T13:39:42;7.10;99.90
7814;DHT22;3952;48.364;16.022;2023-02-03T13:42:19;7.00;99.90
7814;DHT22;3952;48.364;16.022;2023-02-03T13:44:49;7.00;99.90
7814;DHT22;3952;48.364;16.022;2023-02-03T13:47:21;7.00;99.90
7814;DHT22;3952;48.364;16.022;2023-02-03T13:49:53;6.90;99.90
7814;DHT22;3952;48.364;16.022;2023-02-03T13:52:32;6.80;99.90
7814;DHT22;3952;48.364;16.022;2023-02-03T13:55:01;6.80;99.90
7814;DHT22;3952;48.364;16.022;2023-02-03T13:57:33;6.70;99.90
7814;DHT22;3952;48.364;16.022;2023-02-03T14:00:02;6.70;99.90
7814;DHT22;3952;48.364;16.022;2023-02-03T14:02:44;6.70;99.90
7814;DHT22;3952;48.364;16.022;2023-02-03T14:05:41;6.70;99.90
7814;DHT22;3952;48.364;16.022;2023-02-03T14:11:40;6.60;99.90
7814;DHT22;3952;48.364;16.022;2023-02-03T14:20:57;6.50;99.90
7814;DHT22;3952;48.364;16.022;2023-02-03T14:23:44;6.50;99.90
7814;DHT22;3952;48.364;16.022;2023-02-03T14:26:23;6.40;99.90
7814;DHT22;3952;48.364;16.022;2023-02-03T14:28:52;6.40;99.90
7814;DHT22;3952;48.364;16.022;2023-02-03T14:31:21;6.40;99.90
7814;DHT22;3952;48.364;16.022;2023-02-03T14:34:00;6.40;99.90
7814;DHT22;3952;48.364;16.022;2023-02-03T14:36:43;6.40;99.90
7814;DHT22;3952;48.364;16.022;2023-02-03T14:39:41;6.30;99.90
7814;DHT22;3952;48.364;16.022;2023-02-03T14:42:16;6.40;99.90
7814;DHT22;3952;48.364;16.022;2023-02-03T14:45:00;6.30;99.90
7814;DHT22;3952;48.364;16.022;2023-02-03T14:47:46;6.40;99.90
7814;DHT22;3952;48.364;16.022;2023-02-03T14:50:36;6.40;99.90
7814;DHT22;3952;48.364;16.022;2023-02-03T14:56:10;6.40;99.90
7814;DHT22;3952;48.364;16.022;2023-02-03T14:58:42;6.40;99.90
7814;DHT22;3952;48.364;16.022;2023-02-03T15:01:24;6.40;99.90
7814;DHT22;3952;48.364;16.022;2023-02-03T15:04:20;6.40;99.90
7814;DHT22;3952;48.364;16.022;2023-02-03T15:06:49;6.40;99.90
7814;DHT22;3952;48.364;16.022;2023-02-03T15:09:24;6.30;99.90
7814;DHT22;3952;48.364;16.022;2023-02-03T15:11:53;6.30;99.90
7814;DHT22;3952;48.364;16.022;2023-02-03T15:14:23;6.30;99.90
7814;DHT22;3952;48.364;16.022;2023-02-03T15:16:54;6.30;99.90
7814;DHT22;3952;48.364;16.022;2023-02-03T15:19:24;6.20;99.90
7814;DHT22;3952;48.364;16.022;2023-02-03T15:21:52;6.20;99.90
7814;DHT22;3952;48.364;16.022;2023-02-03T15:24:21;6.20;99.90
7814;DHT22;3952;48.364;16.022;2023-02-03T15:26:52;6.20;99.90
7814;DHT22;3952;48.364;16.022;2023-02-03T15:29:23;6.20;99.90
7814;DHT22;3952;48.364;16.022;2023-02-03T15:31:55;6.20;99.90
7814;DHT22;3952;48.364;16.022;2023-02-03T15:34:27;6.20;99.90
7814;DHT22;3952;48.364;16.022;2023-02-03T15:36:59;6.20;99.90
7814;DHT22;3952;48.364;16.022;2023-02-03T15:39:38;5.40;99.90
7814;DHT22;3952;48.364;16.022;2023-02-03T15:42:15;6.30;99.90
7814;DHT22;3952;48.364;16.022;2023-02-03T15:44:49;6.30;99.90
7814;DHT22;3952;48.364;16.022;2023-02-03T15:47:22;6.30;99.90
7814;DHT22;3952;48.364;16.022;2023-02-03T15:52:44;6.30;99.90
7814;DHT22;3952;48.364;16.022;2023-02-03T15:55:19;6.30;99.90
7814;DHT22;3952;48.364;16.022;2023-02-03T15:57:50;6.40;99.90
7814;DHT22;3952;48.364;16.022;2023-02-03T16:00:30;6.40;99.90
7814;DHT22;3952;48.364;16.022;2023-02-03T16:02:59;6.40;99.90
7814;DHT22;3952;48.364;16.022;2023-02-03T16:05:33;6.40;99.90
7814;DHT22;3952;48.364;16.022;2023-02-03T16:08:24;6.40;99.90
7814;DHT22;3952;48.364;16.022;2023-02-03T16:10:53;6.40;99.90
7814;DHT22;3952;48.364;16.022;2023-02-03T16:13:22;6.40;99.90
7814;DHT22;3952;48.364;16.022;2023-02-03T16:15:59;6.30;99.90
7814;DHT22;3952;48.364;16.022;2023-02-03T16:18:27;6.30;99.90
7814;DHT22;3952;48.364;16.022;2023-02-03T16:20:55;6.30;99.90
7814;DHT22;3952;48.364;16.022;2023-02-03T16:23:23;6.30;99.90
7814;DHT22;3952;48.364;16.022;2023-02-03T16:26:18;6.30;99.90
7814;DHT22;3952;48.364;16.022;2023-02-03T16:32:14;6.30;99.90
7814;DHT22;3952;48.364;16.022;2023-02-03T16:35:00;6.30;99.90
7814;DHT22;3952;48.364;16.022;2023-02-03T16:37:45;6.30;99.90
7814;DHT22;3952;48.364;16.022;2023-02-03T16:40:29;6.30;99.90
7814;DHT22;3952;48.364;16.022;2023-02-03T16:43:15;6.30;99.90
7814;DHT22;3952;48.364;16.022;2023-02-03T16:46:01;6.40;99.90
7814;DHT22;3952;48.364;16.022;2023-02-03T16:48:45;6.40;99.90
7814;DHT22;3952;48.364;16.022;2023-02-03T16:51:35;6.40;99.90
7814;DHT22;3952;48.364;16.022;2023-02-03T16:54:04;6.40;99.90
7814;DHT22;3952;48.364;16.022;2023-02-03T16:56:31;6.50;99.90
7814;DHT22;3952;48.364;16.022;2023-02-03T16:59:00;6.50;99.90
7814;DHT22;3952;48.364;16.022;2023-02-03T17:01:27;6.60;99.90
7814;DHT22;3952;48.364;16.022;2023-02-03T17:03:54;6.60;99.90
7814;DHT22;3952;48.364;16.022;2023-02-03T17:06:22;6.70;99.90